»·PEaware :: N348WT KVCV-KPSP

N348WT :: KVCV-KPSP

FLIGHT INFORMATION

Flight Status: Arrived
Operator: Privately registered:
United States
More flights under this callsign
Pilot: Gerald G. (23948)
Aircraft: Unknown
(LEG2)
More flights by this aircraft type
Origin: KVCV Socal Logistics
United States
Destination: KPSP Palm Springs Intl
United States
More flights between these airports :: More routes between these airports
Route: +APLES V386 PSP
File this flight plan on PilotEdge
Remarks:
Altitude:
(Current/Filed)
11,000ft
Speed:
(Current/Filed)
170kts
Departed: 21-Nov-20 09:47 PM
Arrived: 21-Nov-20 10:39 PM
Distance/Time
Traveled:
63nm/0:52
Distance/Time
To Go:
Arrived

Flight Plot

Page will automatically refresh every two minutes.


Map Options




Map Legend


Flown Route
Filed Route
Departure Airport
Arrival Airport
Navaid (VOR, NDB)
Fix

Horizontal Profiles

Position Reports

Time Latitude Longitude Heading Altitude Ground
Speed
21-Nov-20 20:58 34.588333 -117.376341 313 2873ft 0kts
21-Nov-20 20:59 34.588333 -117.376341 313 2873ft 0kts
21-Nov-20 21:00 34.588333 -117.376341 313 2873ft 0kts
21-Nov-20 21:01 34.588333 -117.376341 313 2873ft 0kts
21-Nov-20 21:02 34.588333 -117.376341 313 2873ft 0kts
21-Nov-20 21:03 34.588333 -117.376341 313 2873ft 0kts
21-Nov-20 21:04 34.588333 -117.376341 313 2873ft 0kts
21-Nov-20 21:05 34.588333 -117.376341 313 2873ft 0kts
21-Nov-20 21:06 34.588333 -117.376341 313 2873ft 0kts
21-Nov-20 21:07 34.588333 -117.376341 313 2873ft 0kts
21-Nov-20 21:08 34.588333 -117.376341 313 2873ft 0kts
21-Nov-20 21:09 34.588333 -117.376341 313 2873ft 0kts
21-Nov-20 21:10 34.588333 -117.376341 313 2873ft 0kts
21-Nov-20 21:11 34.588333 -117.376341 313 2873ft 0kts
21-Nov-20 21:12 34.588333 -117.376341 313 2873ft 0kts
21-Nov-20 21:13 34.588333 -117.376341 313 2873ft 0kts
21-Nov-20 21:14 34.588333 -117.376341 313 2873ft 0kts
21-Nov-20 21:15 34.588333 -117.376341 313 2873ft 0kts
21-Nov-20 21:16 34.588333 -117.376341 313 2873ft 0kts
21-Nov-20 21:17 34.588333 -117.376341 313 2873ft 0kts
21-Nov-20 21:18 34.588333 -117.376341 313 2873ft 0kts
21-Nov-20 21:19 34.588333 -117.376341 313 2873ft 0kts
21-Nov-20 21:20 34.588333 -117.376341 313 2873ft 0kts
21-Nov-20 21:21 34.588333 -117.376341 313 2873ft 0kts
21-Nov-20 21:29 34.588333 -117.376341 313 2873ft 0kts
21-Nov-20 21:30 34.588333 -117.376341 313 2873ft 0kts
21-Nov-20 21:31 34.588333 -117.376341 313 2873ft 0kts
21-Nov-20 21:32 34.588333 -117.376341 313 2873ft 0kts
21-Nov-20 21:33 34.588333 -117.376341 313 2873ft 0kts
21-Nov-20 21:34 34.588333 -117.376341 313 2873ft 0kts
21-Nov-20 21:35 34.588333 -117.376341 313 2873ft 0kts
21-Nov-20 21:36 34.588333 -117.376341 313 2873ft 0kts
21-Nov-20 21:37 34.588333 -117.376341 313 2873ft 0kts
21-Nov-20 21:38 34.588333 -117.376341 313 2873ft 0kts
21-Nov-20 21:39 34.588333 -117.376341 313 2873ft 0kts
21-Nov-20 21:40 34.589581 -117.377481 312 2870ft 6kts
21-Nov-20 21:41 34.591294 -117.374939 43 2866ft 16kts
21-Nov-20 21:43 34.593367 -117.371259 84 2863ft 14kts
21-Nov-20 21:44 34.596041 -117.367376 9 2855ft 24kts
21-Nov-20 21:45 34.599111 -117.366663 346 2850ft 0kts
21-Nov-20 21:46 34.599429 -117.366840 318 2849ft 11kts
21-Nov-20 21:47 34.583081 -117.384713 219 3203ft 136kts
21-Nov-20 21:48 34.565395 -117.430526 262 5000ft 152kts
21-Nov-20 21:49 34.558321 -117.491011 263 6674ft 169kts
21-Nov-20 21:50 34.550020 -117.554402 261 8305ft 172kts
21-Nov-20 21:51 34.540123 -117.620130 261 9398ft 178kts
21-Nov-20 21:52 34.530295 -117.685496 264 10473ft 177kts
21-Nov-20 21:53 34.557294 -117.674140 105 10811ft 215kts
21-Nov-20 21:54 34.553295 -117.593511 50 10737ft 232kts
21-Nov-20 21:55 34.612204 -117.580088 3 10778ft 233kts
21-Nov-20 21:56 34.652562 -117.559419 82 10837ft 231kts
21-Nov-20 21:57 34.627974 -117.490627 123 10779ft 235kts
21-Nov-20 21:58 34.586634 -117.410040 123 10778ft 235kts
21-Nov-20 21:59 34.561040 -117.348407 89 10738ft 236kts
21-Nov-20 21:59 34.565001 -117.286852 94 10780ft 235kts
21-Nov-20 22:01 34.553537 -117.194109 108 10776ft 235kts
21-Nov-20 22:01 34.543294 -117.125521 99 10777ft 235kts
21-Nov-20 22:03 34.534000 -117.032173 98 10778ft 235kts
21-Nov-20 22:03 34.527586 -116.965266 98 10778ft 235kts
21-Nov-20 22:04 34.520037 -116.886718 98 10851ft 232kts
21-Nov-20 22:06 34.511038 -116.793764 98 10870ft 235kts
21-Nov-20 22:06 34.504000 -116.734999 100 10869ft 235kts
21-Nov-20 22:07 34.480959 -116.677336 145 10895ft 235kts
21-Nov-20 22:08 34.429730 -116.654019 166 10871ft 236kts
21-Nov-20 22:09 34.373900 -116.634257 164 10869ft 236kts
21-Nov-20 22:10 34.310101 -116.609482 163 10870ft 236kts
21-Nov-20 22:11 34.251927 -116.586588 163 10870ft 236kts
21-Nov-20 22:12 34.175450 -116.558342 167 10880ft 236kts
21-Nov-20 22:13 34.109431 -116.536031 164 10304ft 251kts
21-Nov-20 22:14 34.064403 -116.517329 160 9801ft 186kts
21-Nov-20 22:15 34.028868 -116.500121 158 9325ft 163kts
21-Nov-20 22:16 33.994582 -116.483444 161 8904ft 159kts
21-Nov-20 22:17 33.959541 -116.464323 146 8887ft 171kts
21-Nov-20 22:18 33.921814 -116.431151 144 8883ft 211kts
21-Nov-20 22:19 33.879225 -116.393079 144 8880ft 224kts
21-Nov-20 22:20 33.830884 -116.349881 145 8878ft 228kts
21-Nov-20 22:21 33.748622 -116.274576 144 8879ft 230kts
21-Nov-20 22:22 33.688825 -116.220221 144 8879ft 230kts
21-Nov-20 22:23 33.631981 -116.168406 140 8866ft 214kts
21-Nov-20 22:24 33.600742 -116.112978 123 7399ft 173kts
21-Nov-20 22:25 33.581909 -116.056089 75 5607ft 167kts
21-Nov-20 22:26 33.624571 -116.041671 318 3906ft 163kts
21-Nov-20 22:27 33.627109 -116.096901 260 3886ft 157kts
21-Nov-20 22:28 33.626653 -116.154390 298 3893ft 150kts
21-Nov-20 22:29 33.651045 -116.199265 306 3887ft 143kts
21-Nov-20 22:30 33.677296 -116.244306 307 3713ft 154kts
21-Nov-20 22:31 33.705025 -116.291974 306 3119ft 143kts
21-Nov-20 22:32 33.727088 -116.329924 307 2887ft 111kts
21-Nov-20 22:33 33.747757 -116.365077 306 2888ft 126kts
21-Nov-20 22:34 33.770806 -116.404768 307 2684ft 141kts
21-Nov-20 22:35 33.793236 -116.443726 306 2187ft 115kts
21-Nov-20 22:36 33.803855 -116.477043 278 1375ft 98kts
21-Nov-20 22:37 33.822268 -116.501172 327 406ft 68kts
21-Nov-20 22:38 33.827340 -116.507138 195 425ft 0kts
21-Nov-20 22:39 33.825647 -116.507815 279 422ft 0kts

Navigation Log

Ident Type
Flight plan parsing failed, navigation log unavailable